Terminal Aerodrome Forecast
Issued by NWS Austin/San Antonio, TX

Home | Current Version | Previous Version | Text Only | Print | Product List | Glossary On
Versions: 1 2 3 4 5 6 7 8 9 10 11 12 13 14
000
FTUS44 KEWX 291357 AAB
TAFSAT
TAF AMD
KSAT 291357Z 2914/3018 17006KT P6SM BKN004
     FM291500 18011KT P6SM BKN009
     FM291600 19012KT P6SM SCT018
     FM291800 18013G23KT P6SM SKC
     FM300600 17009KT P6SM OVC025
     FM300900 16007KT 4SM BR OVC007=

USA.gov is the U.S. government's official web portal to all federal, state and local government web resources and services.